Time;durP1;ratioP1;P1;durP2;ratioP2;P2;SDS_P1;SDS_P2;PMS_P1;PMS_P2;Temp;Humidity;BMP_temperature;BMP_pressure;BME280_temperature;BME280_humidity;BME280_pressure;Samples;Min_cycle;Max_cycle;Signal;HPM_P1;HPM_P2
2022/09/18 00:02:27;;;;;;;;;;;;;;;10.29;100.00;97690.14;2241989;79;20094;-58
2022/09/18 00:05:28;;;;;;;;;;;;;;;10.28;100.00;97683.23;2242293;78;20401;-58
2022/09/18 00:08:30;;;;;;;;;;;;;;;10.28;100.00;97677.98;2238657;78;20098;-58
2022/09/18 00:11:31;;;;;;;;;;;;;;;10.33;100.00;97675.00;2237614;78;20129;-58
2022/09/18 00:14:33;;;;;;;;;;;;;;;10.37;100.00;97674.69;2243551;79;20114;-58
2022/09/18 00:17:34;;;;;;;;;;;;;;;10.39;100.00;97668.02;2239516;78;20197;-58
2022/09/18 00:20:36;;;;;;;;;;;;;;;10.26;100.00;97664.64;2241190;78;20424;-58
2022/09/18 00:23:37;;;;;;;;;;;;;;;10.22;100.00;97663.57;2242058;79;20098;-58
2022/09/18 00:26:38;;;;;;;;;;;;;;;10.30;100.00;97670.00;2238742;79;20388;-58
2022/09/18 00:29:41;;;;;;;;;;;;;;;10.27;100.00;97665.86;2240704;79;20113;-58
2022/09/18 00:32:42;;;;;;;;;;;;;;;10.14;100.00;97671.22;2237690;79;20107;-58
2022/09/18 00:35:44;;;;;;;;;;;;;;;10.19;100.00;97670.85;2236658;79;20474;-58
2022/09/18 00:38:46;;;;;;;;;;;;;;;10.18;100.00;97664.76;2240543;79;20087;-59
2022/09/18 00:41:47;;;;;;;;;;;;;;;10.24;100.00;97668.69;2240662;78;20210;-58
2022/09/18 00:44:50;;;;;;;;;;;;;;;10.23;100.00;97671.80;2238938;79;20515;-58
2022/09/18 00:47:51;;;;;;;;;;;;;;;10.18;100.00;97667.38;2241073;78;20175;-58
2022/09/18 00:50:53;;;;;;;;;;;;;;;10.20;100.00;97661.56;2245224;78;20096;-58
2022/09/18 00:53:55;;;;;;;;;;;;;;;10.21;100.00;97664.55;2238418;78;20433;-58
2022/09/18 00:56:56;;;;;;;;;;;;;;;10.16;100.00;97659.30;2237849;78;20131;-57
2022/09/18 00:59:57;;;;;;;;;;;;;;;10.18;100.00;97657.39;2246869;78;20097;-58
2022/09/18 01:03:00;;;;;;;;;;;;;;;10.16;100.00;97657.51;2249378;79;20118;-58
2022/09/18 01:06:01;;;;;;;;;;;;;;;10.21;100.00;97654.06;2242079;78;20118;-58
2022/09/18 01:09:03;;;;;;;;;;;;;;;10.10;100.00;97646.20;2239974;78;20102;-59
2022/09/18 01:12:04;;;;;;;;;;;;;;;10.09;100.00;97645.84;2236043;79;20142;-59
2022/09/18 01:15:05;;;;;;;;;;;;;;;10.06;100.00;97641.66;2249126;79;20122;-58
2022/09/18 01:18:07;;;;;;;;;;;;;;;10.00;100.00;97635.60;2244379;79;20110;-58
2022/09/18 01:21:08;;;;;;;;;;;;;;;10.11;100.00;97640.47;2243087;79;20090;-59
2022/09/18 01:24:10;;;;;;;;;;;;;;;10.02;100.00;97635.48;2243169;78;20397;-58
2022/09/18 01:27:11;;;;;;;;;;;;;;;9.96;100.00;97642.02;2241880;79;20088;-58
2022/09/18 01:30:13;;;;;;;;;;;;;;;9.96;100.00;97640.72;2239435;79;20171;-58
2022/09/18 01:33:15;;;;;;;;;;;;;;;9.97;100.00;97638.46;2236292;79;20381;-59
2022/09/18 01:36:16;;;;;;;;;;;;;;;9.93;100.00;97647.50;2239807;79;20098;-57
2022/09/18 01:39:18;;;;;;;;;;;;;;;9.92;100.00;97653.69;2237306;78;20378;-57
2022/09/18 01:42:20;;;;;;;;;;;;;;;9.90;100.00;97655.60;2241838;79;20465;-57
2022/09/18 01:45:21;;;;;;;;;;;;;;;9.88;100.00;97658.80;2240019;79;20114;-57
2022/09/18 01:48:23;;;;;;;;;;;;;;;9.84;100.00;97659.52;2239688;79;20457;-59
2022/09/18 01:51:24;;;;;;;;;;;;;;;9.84;100.00;97654.28;2240908;79;20098;-58
2022/09/18 01:54:26;;;;;;;;;;;;;;;9.84;100.00;97650.81;2242073;78;20095;-58
2022/09/18 01:57:27;;;;;;;;;;;;;;;9.77;100.00;97651.78;2240448;79;20106;-57
2022/09/18 02:00:30;;;;;;;;;;;;;;;9.74;100.00;97654.64;2246107;78;20174;-58
2022/09/18 02:03:32;;;;;;;;;;;;;;;9.78;100.00;97661.28;2236783;78;20106;-57
2022/09/18 02:06:33;;;;;;;;;;;;;;;9.74;100.00;97652.02;2240603;78;20106;-58
2022/09/18 02:09:35;;;;;;;;;;;;;;;9.72;100.00;97648.66;2223618;78;20116;-58
2022/09/18 02:12:36;;;;;;;;;;;;;;;9.65;100.00;97653.52;2239546;79;20449;-58
2022/09/18 02:15:38;;;;;;;;;;;;;;;9.71;100.00;97653.08;2236674;78;20154;-58
2022/09/18 02:18:39;;;;;;;;;;;;;;;9.73;100.00;97650.83;2239957;79;20095;-58
2022/09/18 02:21:41;;;;;;;;;;;;;;;9.70;100.00;97657.12;2239562;79;20094;-58
2022/09/18 02:24:42;;;;;;;;;;;;;;;9.75;100.00;97652.36;2246034;79;20149;-58
2022/09/18 02:27:44;;;;;;;;;;;;;;;9.67;100.00;97652.13;2238807;79;20475;-58
2022/09/18 02:30:46;;;;;;;;;;;;;;;9.66;100.00;97649.97;2247683;79;20121;-59
2022/09/18 02:33:47;;;;;;;;;;;;;;;9.62;100.00;97656.38;2236691;78;20100;-58
2022/09/18 02:36:49;;;;;;;;;;;;;;;9.60;100.00;97662.22;2231981;79;20106;-58
2022/09/18 02:39:51;;;;;;;;;;;;;;;9.57;100.00;97664.22;2235532;79;20152;-59
2022/09/18 02:42:52;;;;;;;;;;;;;;;9.52;100.00;97658.03;2238616;79;20385;-58
2022/09/18 02:45:54;;;;;;;;;;;;;;;9.56;100.00;97666.02;2235123;79;20095;-58
2022/09/18 02:48:55;;;;;;;;;;;;;;;9.57;100.00;97665.07;2242278;78;20146;-59
2022/09/18 02:51:56;;;;;;;;;;;;;;;9.54;100.00;97657.45;2233676;79;20169;-58
2022/09/18 02:54:58;;;;;;;;;;;;;;;9.53;100.00;97655.29;2233186;79;20186;-58
2022/09/18 02:57:59;;;;;;;;;;;;;;;9.42;100.00;97662.29;2236081;78;20189;-58
2022/09/18 03:01:01;;;;;;;;;;;;;;;9.41;100.00;97664.54;2238062;78;20130;-58
2022/09/18 03:04:02;;;;;;;;;;;;;;;9.42;100.00;97650.52;2235302;79;20446;-58
2022/09/18 03:07:03;;;;;;;;;;;;;;;9.38;100.00;97651.69;2242827;79;20158;-58
2022/09/18 03:10:05;;;;;;;;;;;;;;;9.37;100.00;97652.17;2237107;79;20206;-58
2022/09/18 03:13:07;;;;;;;;;;;;;;;9.33;100.00;97659.89;2233291;79;20087;-59
2022/09/18 03:16:08;;;;;;;;;;;;;;;9.34;100.00;97653.72;2242965;78;20979;-58
2022/09/18 03:19:10;;;;;;;;;;;;;;;9.35;100.00;97657.52;2234990;79;20214;-57
2022/09/18 03:22:13;;;;;;;;;;;;;;;9.33;100.00;97662.02;2243084;78;20193;-58
2022/09/18 03:25:14;;;;;;;;;;;;;;;9.26;100.00;97659.98;2245764;78;20179;-58
2022/09/18 03:28:16;;;;;;;;;;;;;;;9.23;100.00;97660.22;2235466;78;20494;-58
2022/09/18 03:31:17;;;;;;;;;;;;;;;9.25;100.00;97659.16;2241000;79;20190;-58
2022/09/18 03:34:19;;;;;;;;;;;;;;;9.21;100.00;97667.33;2239964;78;20175;-58
2022/09/18 03:37:20;;;;;;;;;;;;;;;9.16;100.00;97667.67;2238347;79;20111;-58
2022/09/18 03:40:22;;;;;;;;;;;;;;;9.18;100.00;97668.41;2243165;78;20142;-58
2022/09/18 03:43:23;;;;;;;;;;;;;;;9.18;100.00;97669.23;2236323;79;20452;-57
2022/09/18 03:46:25;;;;;;;;;;;;;;;9.10;100.00;97675.49;2232798;78;20094;-57
2022/09/18 03:49:26;;;;;;;;;;;;;;;9.09;100.00;97672.51;2238533;78;20107;-57
2022/09/18 03:52:29;;;;;;;;;;;;;;;9.11;100.00;97677.17;2240144;79;20146;-58
2022/09/18 03:55:30;;;;;;;;;;;;;;;9.15;100.00;97676.45;2236113;79;20094;-58
2022/09/18 03:58:31;;;;;;;;;;;;;;;9.06;100.00;97683.69;2247715;78;20195;-58
2022/09/18 04:01:33;;;;;;;;;;;;;;;9.07;100.00;97683.58;2239796;78;20125;-58
2022/09/18 04:04:35;;;;;;;;;;;;;;;9.06;100.00;97682.38;2243688;78;20087;-58
2022/09/18 04:07:36;;;;;;;;;;;;;;;9.07;100.00;97687.98;2235340;79;20542;-58
2022/09/18 04:10:37;;;;;;;;;;;;;;;9.09;100.00;97686.89;2235998;79;20102;-58
2022/09/18 04:13:39;;;;;;;;;;;;;;;9.15;100.00;97700.00;2241039;78;20127;-58
2022/09/18 04:16:40;;;;;;;;;;;;;;;9.08;100.00;97697.47;2241135;78;20235;-58
2022/09/18 04:19:42;;;;;;;;;;;;;;;9.06;100.00;97701.51;2237922;79;20087;-58
2022/09/18 04:25:47;;;;;;;;;;;;;;;8.92;100.00;97707.77;2212091;79;20090;-58
2022/09/18 04:28:48;;;;;;;;;;;;;;;8.94;100.00;97709.78;2239164;78;20133;-59
2022/09/18 04:31:50;;;;;;;;;;;;;;;8.84;100.00;97716.63;2235473;79;20106;-58
2022/09/18 04:34:51;;;;;;;;;;;;;;;8.79;100.00;97713.03;2242422;78;20417;-59
2022/09/18 04:37:53;;;;;;;;;;;;;;;8.73;100.00;97719.16;2238256;79;20124;-58
2022/09/18 04:40:55;;;;;;;;;;;;;;;8.69;100.00;97724.23;2238828;78;20137;-59
2022/09/18 04:43:56;;;;;;;;;;;;;;;8.60;100.00;97717.89;2235651;79;20389;-58
2022/09/18 04:46:58;;;;;;;;;;;;;;;8.57;100.00;97722.85;2241095;79;20102;-58
2022/09/18 04:50:00;;;;;;;;;;;;;;;8.51;100.00;97717.24;2243846;78;20167;-58
2022/09/18 04:53:01;;;;;;;;;;;;;;;8.48;100.00;97725.64;2241983;78;20137;-58
2022/09/18 04:56:03;;;;;;;;;;;;;;;8.46;100.00;97727.55;2245482;78;20113;-59
2022/09/18 04:59:05;;;;;;;;;;;;;;;8.51;100.00;97730.31;2237947;79;20102;-58
2022/09/18 05:02:06;;;;;;;;;;;;;;;8.45;100.00;97731.57;2244536;78;20150;-58
2022/09/18 05:05:08;;;;;;;;;;;;;;;8.41;100.00;97730.90;2240226;78;20107;-58
2022/09/18 05:08:09;;;;;;;;;;;;;;;8.42;100.00;97729.11;2233798;79;20447;-58
2022/09/18 05:11:11;;;;;;;;;;;;;;;8.42;100.00;97729.11;2239500;78;20106;-58
2022/09/18 05:14:12;;;;;;;;;;;;;;;8.45;100.00;97728.95;2237390;78;20094;-58
2022/09/18 05:17:14;;;;;;;;;;;;;;;8.47;100.00;97738.81;2239202;78;20115;-58
2022/09/18 05:20:15;;;;;;;;;;;;;;;8.54;100.00;97730.09;2234651;79;20177;-58
2022/09/18 05:23:17;;;;;;;;;;;;;;;8.54;100.00;97726.99;2235424;78;20405;-57
2022/09/18 05:26:18;;;;;;;;;;;;;;;8.68;100.00;97728.64;2240728;78;20129;-58
2022/09/18 05:29:20;;;;;;;;;;;;;;;8.69;100.00;97728.98;2239916;79;20103;-57
2022/09/18 05:32:21;;;;;;;;;;;;;;;8.70;100.00;97734.59;2241887;78;20095;-58
2022/09/18 05:35:22;;;;;;;;;;;;;;;8.71;100.00;97735.44;2240518;79;20102;-57
2022/09/18 05:38:24;;;;;;;;;;;;;;;8.74;100.00;97733.91;2241145;78;20118;-58
2022/09/18 05:41:25;;;;;;;;;;;;;;;8.72;100.00;97737.09;2241530;79;20134;-57
2022/09/18 05:44:27;;;;;;;;;;;;;;;8.81;100.00;97737.77;2238647;79;20426;-57
2022/09/18 05:47:31;;;;;;;;;;;;;;;8.82;100.00;97742.02;2242273;78;20106;-57
2022/09/18 05:50:31;;;;;;;;;;;;;;;8.87;100.00;97742.55;2214566;79;20103;-58
2022/09/18 05:53:34;;;;;;;;;;;;;;;8.86;100.00;97736.94;2242554;78;20125;-57
2022/09/18 05:56:35;;;;;;;;;;;;;;;8.91;100.00;97737.95;2244184;79;20106;-58
2022/09/18 05:59:38;;;;;;;;;;;;;;;9.01;100.00;97739.78;2242778;79;20468;-58
2022/09/18 06:02:39;;;;;;;;;;;;;;;9.07;100.00;97729.83;2240408;78;20102;-58
2022/09/18 06:05:41;;;;;;;;;;;;;;;9.13;100.00;97733.30;2239634;79;20444;-58
2022/09/18 06:08:43;;;;;;;;;;;;;;;9.22;100.00;97733.92;2239376;79;20138;-58
2022/09/18 06:11:44;;;;;;;;;;;;;;;9.28;100.00;97737.42;2240937;78;20110;-58
2022/09/18 06:14:46;;;;;;;;;;;;;;;9.38;100.00;97726.27;2240479;78;20094;-58
2022/09/18 06:17:47;;;;;;;;;;;;;;;9.51;100.00;97731.81;2238584;79;20103;-58
2022/09/18 06:20:48;;;;;;;;;;;;;;;9.64;100.00;97736.97;2242271;79;20401;-58
2022/09/18 06:23:50;;;;;;;;;;;;;;;9.64;100.00;97740.04;2240235;78;20126;-59
2022/09/18 06:26:52;;;;;;;;;;;;;;;9.66;100.00;97742.09;2241138;79;20098;-59
2022/09/18 06:29:53;;;;;;;;;;;;;;;9.66;100.00;97749.94;2239294;79;20131;-58
2022/09/18 06:32:55;;;;;;;;;;;;;;;9.69;100.00;97746.60;2238499;79;20129;-59
2022/09/18 06:35:57;;;;;;;;;;;;;;;9.71;100.00;97746.48;2234595;79;20104;-58
2022/09/18 06:38:58;;;;;;;;;;;;;;;9.83;100.00;97744.76;2239990;78;20190;-58
2022/09/18 06:42:00;;;;;;;;;;;;;;;9.77;100.00;97760.45;2240561;78;20088;-58
2022/09/18 06:45:01;;;;;;;;;;;;;;;9.75;100.00;97758.41;2241867;79;20407;-58
2022/09/18 06:48:03;;;;;;;;;;;;;;;9.70;100.00;97757.45;2238634;79;20094;-58
2022/09/18 06:51:05;;;;;;;;;;;;;;;9.83;100.00;97752.13;2241554;78;20094;-59
2022/09/18 06:54:07;;;;;;;;;;;;;;;9.90;100.00;97749.89;2240091;78;20425;-58
2022/09/18 06:57:08;;;;;;;;;;;;;;;9.97;100.00;97755.48;2236957;79;20147;-58
2022/09/18 07:00:10;;;;;;;;;;;;;;;10.07;100.00;97760.41;2235161;79;20106;-58
2022/09/18 07:03:11;;;;;;;;;;;;;;;9.97;100.00;97754.17;2238387;79;20179;-58
2022/09/18 07:06:13;;;;;;;;;;;;;;;10.04;100.00;97756.69;2242890;79;20104;-58
2022/09/18 07:09:14;;;;;;;;;;;;;;;10.02;100.00;97752.05;2237987;79;20393;-58
2022/09/18 07:12:15;;;;;;;;;;;;;;;10.09;100.00;97755.05;2235220;79;20166;-59
2022/09/18 07:15:17;;;;;;;;;;;;;;;9.97;100.00;97768.13;2236653;79;20401;-59
2022/09/18 07:18:19;;;;;;;;;;;;;;;9.90;100.00;97759.06;2237140;79;20147;-59
2022/09/18 07:21:20;;;;;;;;;;;;;;;9.99;100.00;97765.39;2237447;79;20150;-60
2022/09/18 07:24:24;;;;;;;;;;;;;;;10.08;100.00;97755.51;2217116;79;20091;-59
2022/09/18 07:27:25;;;;;;;;;;;;;;;10.25;100.00;97762.58;2238656;79;20150;-57
2022/09/18 07:30:27;;;;;;;;;;;;;;;10.34;100.00;97764.51;2246002;78;20506;-57
2022/09/18 07:33:28;;;;;;;;;;;;;;;10.27;100.00;97765.45;2232044;78;20106;-59
2022/09/18 07:36:31;;;;;;;;;;;;;;;10.12;100.00;97767.43;2240139;78;20119;-58
2022/09/18 07:39:33;;;;;;;;;;;;;;;10.12;100.00;97773.16;2232226;79;20436;-58
2022/09/18 07:42:34;;;;;;;;;;;;;;;10.24;100.00;97764.34;2246999;78;20125;-58
2022/09/18 07:45:36;;;;;;;;;;;;;;;10.32;100.00;97759.84;2233789;79;20186;-57
2022/09/18 07:48:38;;;;;;;;;;;;;;;10.52;100.00;97763.09;2239185;79;20452;-57
2022/09/18 07:51:39;;;;;;;;;;;;;;;10.78;100.00;97764.16;2239245;79;20151;-58
2022/09/18 07:54:41;;;;;;;;;;;;;;;10.82;100.00;97759.48;2234847;79;20397;-58
2022/09/18 07:57:44;;;;;;;;;;;;;;;10.90;100.00;97764.51;2240771;78;20109;-58
2022/09/18 08:00:46;;;;;;;;;;;;;;;10.91;100.00;97766.64;2239646;79;20101;-58
2022/09/18 08:03:47;;;;;;;;;;;;;;;10.74;100.00;97782.39;2241174;78;20102;-58
2022/09/18 08:06:49;;;;;;;;;;;;;;;10.79;100.00;97775.02;2237263;78;20102;-58
2022/09/18 08:09:50;;;;;;;;;;;;;;;10.87;100.00;97770.46;2236488;79;20118;-58
2022/09/18 08:12:51;;;;;;;;;;;;;;;10.89;100.00;97779.06;2242908;78;20102;-58
2022/09/18 08:15:53;;;;;;;;;;;;;;;10.82;100.00;97771.29;2240298;78;20162;-58
2022/09/18 08:18:55;;;;;;;;;;;;;;;10.70;100.00;97772.64;2237637;79;20404;-58
2022/09/18 08:21:56;;;;;;;;;;;;;;;10.65;100.00;97770.84;2245544;78;20087;-58
2022/09/18 08:24:58;;;;;;;;;;;;;;;10.64;100.00;97781.45;2242488;79;20102;-58
2022/09/18 08:28:01;;;;;;;;;;;;;;;10.65;100.00;97776.08;2239479;79;20107;-58
2022/09/18 08:31:03;;;;;;;;;;;;;;;10.70;100.00;97779.19;2233655;79;20421;-58
2022/09/18 08:34:05;;;;;;;;;;;;;;;10.72;100.00;97780.38;2240013;79;20094;-58
2022/09/18 08:37:07;;;;;;;;;;;;;;;10.83;100.00;97772.97;2240829;79;20192;-57
2022/09/18 08:40:09;;;;;;;;;;;;;;;10.92;100.00;97769.14;2242926;79;20129;-57
2022/09/18 08:43:11;;;;;;;;;;;;;;;10.88;100.00;97768.20;2238194;79;20107;-57
2022/09/18 08:46:13;;;;;;;;;;;;;;;10.86;100.00;97776.20;2239294;79;20176;-58
2022/09/18 08:49:15;;;;;;;;;;;;;;;10.82;100.00;97765.58;2245670;79;20098;-57
2022/09/18 08:52:19;;;;;;;;;;;;;;;10.97;100.00;97768.77;2235929;79;20105;-59
2022/09/18 08:55:21;;;;;;;;;;;;;;;11.33;100.00;97761.52;2243671;79;20190;-57
2022/09/18 08:58:23;;;;;;;;;;;;;;;11.91;100.00;97782.65;2233171;78;20161;-58
2022/09/18 09:01:25;;;;;;;;;;;;;;;12.16;100.00;97759.13;2241555;78;20440;-58
2022/09/18 09:04:27;;;;;;;;;;;;;;;12.21;100.00;97771.42;2235455;79;20147;-58
2022/09/18 09:07:29;;;;;;;;;;;;;;;11.91;100.00;97771.68;2250972;79;20094;-59
2022/09/18 09:10:30;;;;;;;;;;;;;;;11.77;100.00;97766.73;2240704;78;20414;-58
2022/09/18 09:13:33;;;;;;;;;;;;;;;11.68;100.00;97768.33;2245988;79;20102;-58
2022/09/18 09:16:35;;;;;;;;;;;;;;;11.56;100.00;97764.90;2238142;79;20152;-58
2022/09/18 09:19:37;;;;;;;;;;;;;;;11.36;100.00;97758.64;2241977;79;20501;-58
2022/09/18 09:22:41;;;;;;;;;;;;;;;11.08;100.00;97773.18;2210873;79;20105;-59
2022/09/18 09:25:42;;;;;;;;;;;;;;;10.83;100.00;97769.89;2235657;79;20137;-59
2022/09/18 09:28:44;;;;;;;;;;;;;;;10.69;100.00;97751.78;2237219;79;20129;-57
2022/09/18 09:31:45;;;;;;;;;;;;;;;11.01;100.00;97773.31;2241639;79;20090;-57
2022/09/18 09:34:47;;;;;;;;;;;;;;;11.26;100.00;97772.16;2241674;78;20094;-58
2022/09/18 09:37:48;;;;;;;;;;;;;;;11.57;100.00;97761.32;2238687;78;20130;-57
2022/09/18 09:40:50;;;;;;;;;;;;;;;11.70;100.00;97761.64;2238112;79;20441;-57
2022/09/18 09:43:51;;;;;;;;;;;;;;;11.73;100.00;97756.95;2239465;79;20137;-57
2022/09/18 09:46:53;;;;;;;;;;;;;;;11.83;100.00;97761.45;2241333;79;20393;-58
2022/09/18 09:49:54;;;;;;;;;;;;;;;11.75;100.00;97768.64;2241518;78;20178;-57
2022/09/18 09:52:56;;;;;;;;;;;;;;;11.76;100.00;97767.20;2235291;79;20449;-58
2022/09/18 09:55:58;;;;;;;;;;;;;;;12.06;100.00;97772.70;2234443;79;20135;-58
2022/09/18 09:58:59;;;;;;;;;;;;;;;12.30;100.00;97758.80;2238599;78;20146;-59
2022/09/18 10:02:01;;;;;;;;;;;;;;;12.45;100.00;97772.42;2237099;79;20091;-59
2022/09/18 10:05:03;;;;;;;;;;;;;;;12.37;100.00;97772.72;2243128;78;20117;-58
2022/09/18 10:08:06;;;;;;;;;;;;;;;12.25;100.00;97774.61;2238871;78;20102;-59
2022/09/18 10:11:10;;;;;;;;;;;;;;;12.10;100.00;97779.38;2238464;79;20095;-59
2022/09/18 10:14:11;;;;;;;;;;;;;;;11.81;100.00;97774.72;2242627;78;20154;-58
2022/09/18 10:17:13;;;;;;;;;;;;;;;11.71;100.00;97775.95;2236644;79;20145;-58
2022/09/18 10:20:15;;;;;;;;;;;;;;;11.54;100.00;97773.39;2240606;79;20094;-58
2022/09/18 10:23:17;;;;;;;;;;;;;;;11.56;100.00;97771.95;2238761;79;20420;-58
2022/09/18 10:26:19;;;;;;;;;;;;;;;11.73;100.00;97777.14;2236336;78;20389;-60
2022/09/18 10:29:21;;;;;;;;;;;;;;;11.81;100.00;97777.81;2238644;79;20151;-59
2022/09/18 10:32:22;;;;;;;;;;;;;;;11.95;100.00;97785.41;2239615;79;20109;-59
2022/09/18 10:35:24;;;;;;;;;;;;;;;11.96;100.00;97791.03;2236645;79;20158;-59
2022/09/18 10:38:27;;;;;;;;;;;;;;;12.05;100.00;97792.05;2240978;79;20167;-59
2022/09/18 10:41:30;;;;;;;;;;;;;;;12.18;100.00;97794.00;2241579;79;20126;-59
2022/09/18 10:44:31;;;;;;;;;;;;;;;12.29;100.00;97793.93;2240170;79;20469;-58
2022/09/18 10:47:33;;;;;;;;;;;;;;;12.35;100.00;97789.95;2241828;78;20094;-59
2022/09/18 10:50:36;;;;;;;;;;;;;;;12.44;100.00;97790.96;2240417;77;20128;-58
2022/09/18 10:53:38;;;;;;;;;;;;;;;12.33;100.00;97799.78;2199067;80;20090;-59
2022/09/18 10:56:41;;;;;;;;;;;;;;;12.20;100.00;97781.58;2242365;79;20123;-58
2022/09/18 10:59:42;;;;;;;;;;;;;;;12.27;100.00;97787.16;2242079;78;20437;-58
2022/09/18 11:02:44;;;;;;;;;;;;;;;12.62;100.00;97787.25;2248158;78;20154;-59
2022/09/18 11:05:45;;;;;;;;;;;;;;;12.86;100.00;97776.41;2246649;78;20110;-58
2022/09/18 11:08:47;;;;;;;;;;;;;;;12.97;100.00;97782.89;2246034;78;20105;-58
2022/09/18 11:11:50;;;;;;;;;;;;;;;12.85;100.00;97781.31;2242701;79;20221;-58
2022/09/18 11:14:52;;;;;;;;;;;;;;;12.71;100.00;97778.55;2245496;79;20153;-59
2022/09/18 11:17:53;;;;;;;;;;;;;;;12.72;100.00;97772.83;2247218;79;20101;-59
2022/09/18 11:20:55;;;;;;;;;;;;;;;12.80;100.00;97772.52;2244587;79;20130;-58
2022/09/18 11:23:56;;;;;;;;;;;;;;;12.93;100.00;97779.32;2247418;78;20392;-59
2022/09/18 11:26:58;;;;;;;;;;;;;;;12.79;100.00;97781.36;2242499;79;20106;-59
2022/09/18 11:29:59;;;;;;;;;;;;;;;12.76;100.00;97776.37;2250063;78;20133;-58
2022/09/18 11:33:01;;;;;;;;;;;;;;;12.78;100.00;97788.90;2245994;78;20111;-58
2022/09/18 11:36:03;;;;;;;;;;;;;;;12.64;100.00;97795.38;2248237;78;20102;-58
2022/09/18 11:39:05;;;;;;;;;;;;;;;12.75;100.00;97790.48;2208691;80;20108;-58
2022/09/18 11:42:06;;;;;;;;;;;;;;;13.05;100.00;97782.70;2200079;80;20097;-58
2022/09/18 11:45:08;;;;;;;;;;;;;;;13.10;100.00;97788.38;2209121;80;20097;-59
2022/09/18 11:48:09;;;;;;;;;;;;;;;13.11;100.00;97778.20;2209919;80;20443;-58
2022/09/18 11:51:11;;;;;;;;;;;;;;;13.27;100.00;97782.45;2206253;80;20109;-57
2022/09/18 11:54:13;;;;;;;;;;;;;;;13.49;100.00;97767.42;2203742;80;20420;-58
2022/09/18 11:57:15;;;;;;;;;;;;;;;13.63;100.00;97780.19;2209587;80;20116;-58
2022/09/18 12:00:16;;;;;;;;;;;;;;;13.53;100.00;97781.14;2201264;80;20143;-57
2022/09/18 12:03:21;;;;;;;;;;;;;;;13.28;100.00;97791.20;2202181;80;20379;-57
2022/09/18 12:06:22;;;;;;;;;;;;;;;12.82;100.00;97804.77;2204667;80;20112;-59
2022/09/18 12:12:27;;;;;;;;;;;;;;;12.43;100.00;97799.34;2169132;80;20108;-58
2022/09/18 12:15:29;;;;;;;;;;;;;;;12.42;100.00;97798.16;2207935;80;20135;-58
2022/09/18 12:18:30;;;;;;;;;;;;;;;12.57;100.00;97813.96;2211820;80;20132;-58
2022/09/18 12:21:32;;;;;;;;;;;;;;;12.60;100.00;97812.87;2206328;80;20100;-58
2022/09/18 12:24:33;;;;;;;;;;;;;;;12.67;100.00;97814.02;2207208;80;20124;-58
2022/09/18 12:27:35;;;;;;;;;;;;;;;12.83;100.00;97811.72;2202048;80;20395;-59
2022/09/18 12:30:37;;;;;;;;;;;;;;;12.83;100.00;97816.16;2202937;80;20096;-59
2022/09/18 12:33:38;;;;;;;;;;;;;;;12.87;100.00;97819.34;2208090;80;20097;-58
2022/09/18 12:36:40;;;;;;;;;;;;;;;12.83;100.00;97813.52;2211487;80;20407;-58
2022/09/18 12:39:42;;;;;;;;;;;;;;;12.99;100.00;97823.55;2206399;80;20093;-58
2022/09/18 12:42:44;;;;;;;;;;;;;;;12.86;100.00;97822.46;2207454;79;20190;-59
2022/09/18 12:45:46;;;;;;;;;;;;;;;12.75;100.00;97819.42;2205629;80;20527;-58
2022/09/18 12:48:48;;;;;;;;;;;;;;;12.59;100.00;97812.02;2210082;80;20194;-58
2022/09/18 12:51:50;;;;;;;;;;;;;;;12.54;100.00;97810.28;2204729;80;20183;-58
2022/09/18 12:54:51;;;;;;;;;;;;;;;12.36;100.00;97814.47;2205119;80;20505;-58
2022/09/18 12:57:53;;;;;;;;;;;;;;;12.18;100.00;97818.15;2203177;80;20115;-58
2022/09/18 13:00:55;;;;;;;;;;;;;;;12.22;100.00;97818.25;2203906;80;20099;-58
2022/09/18 13:03:57;;;;;;;;;;;;;;;12.23;100.00;97819.43;2204856;80;20411;-59
2022/09/18 13:06:58;;;;;;;;;;;;;;;12.27;100.00;97830.05;2201567;80;20107;-59
2022/09/18 13:10:00;;;;;;;;;;;;;;;12.33;100.00;97833.14;2205423;80;20085;-58
2022/09/18 13:13:01;;;;;;;;;;;;;;;12.49;100.00;97826.92;2208593;80;20105;-58
2022/09/18 13:16:03;;;;;;;;;;;;;;;12.45;100.00;97821.07;2214231;80;20092;-58
2022/09/18 13:19:05;;;;;;;;;;;;;;;12.56;100.00;97835.14;2197871;80;20438;-58
2022/09/18 13:22:06;;;;;;;;;;;;;;;12.46;100.00;97825.38;2206680;80;20085;-58
2022/09/18 13:25:07;;;;;;;;;;;;;;;12.36;100.00;97828.44;2205007;80;20128;-59
2022/09/18 13:28:09;;;;;;;;;;;;;;;12.33;100.00;97837.91;2210652;80;20109;-58
2022/09/18 13:31:11;;;;;;;;;;;;;;;12.39;100.00;97834.75;2210228;80;20108;-58
2022/09/18 13:34:13;;;;;;;;;;;;;;;12.51;100.00;97830.73;2203650;80;20372;-58
2022/09/18 13:37:14;;;;;;;;;;;;;;;12.77;100.00;97829.36;2203919;80;20132;-58
2022/09/18 13:40:16;;;;;;;;;;;;;;;12.83;100.00;97836.72;2203866;80;20109;-58
2022/09/18 13:43:18;;;;;;;;;;;;;;;12.81;100.00;97829.91;2205122;80;20376;-58
2022/09/18 13:46:19;;;;;;;;;;;;;;;13.22;100.00;97835.20;2205234;80;20105;-58
2022/09/18 13:49:21;;;;;;;;;;;;;;;13.63;100.00;97835.98;2194873;80;20107;-58
2022/09/18 13:52:22;;;;;;;;;;;;;;;14.08;100.00;97820.95;2206346;80;20101;-58
2022/09/18 13:55:26;;;;;;;;;;;;;;;14.35;100.00;97834.72;2219963;80;20437;-59
2022/09/18 13:58:27;;;;;;;;;;;;;;;14.48;100.00;97841.48;2187586;80;20136;-59
2022/09/18 14:01:28;;;;;;;;;;;;;;;14.05;100.00;97839.69;2214485;80;20451;-58
2022/09/18 14:04:29;;;;;;;;;;;;;;;13.73;100.00;97842.58;2207065;80;20128;-59
2022/09/18 14:07:31;;;;;;;;;;;;;;;13.39;100.00;97839.84;2207178;80;20379;-59
2022/09/18 14:10:32;;;;;;;;;;;;;;;13.17;100.00;97839.52;2212804;80;20172;-59
2022/09/18 14:13:34;;;;;;;;;;;;;;;13.49;100.00;97839.38;2215542;80;20164;-58
2022/09/18 14:16:40;;;;;;;;;;;;;;;13.36;100.00;97847.16;2197170;80;20132;-59
2022/09/18 14:19:39;;;;;;;;;;;;;;;13.27;100.00;97842.19;2191855;80;20412;-59
2022/09/18 14:22:41;;;;;;;;;;;;;;;13.35;100.00;97843.70;2213276;80;20144;-59
2022/09/18 14:25:42;;;;;;;;;;;;;;;13.56;100.00;97827.81;2212467;80;20119;-59
2022/09/18 14:28:44;;;;;;;;;;;;;;;13.57;100.00;97847.08;2201919;80;20128;-59
2022/09/18 14:31:47;;;;;;;;;;;;;;;13.34;100.00;97848.59;2205634;79;20101;-59
2022/09/18 14:34:49;;;;;;;;;;;;;;;13.15;100.00;97849.38;2201885;80;20419;-59
2022/09/18 14:37:51;;;;;;;;;;;;;;;12.90;100.00;97834.86;2206577;80;20096;-59
2022/09/18 14:40:53;;;;;;;;;;;;;;;12.61;100.00;97842.14;2204514;79;20144;-58
2022/09/18 14:43:54;;;;;;;;;;;;;;;12.27;100.00;97860.28;2203088;80;20430;-58
2022/09/18 14:46:56;;;;;;;;;;;;;;;11.95;100.00;97870.36;2200094;80;20096;-58
2022/09/18 14:49:58;;;;;;;;;;;;;;;11.55;100.00;97897.19;2208289;80;20128;-59
2022/09/18 14:52:59;;;;;;;;;;;;;;;11.27;100.00;97902.47;2207978;80;20108;-58
2022/09/18 14:56:00;;;;;;;;;;;;;;;10.98;100.00;97870.64;2210230;80;20195;-58
2022/09/18 14:59:02;;;;;;;;;;;;;;;10.79;100.00;97885.63;2202831;79;20445;-59
2022/09/18 15:02:04;;;;;;;;;;;;;;;10.66;100.00;97889.67;2204416;80;20132;-58
2022/09/18 15:05:06;;;;;;;;;;;;;;;10.56;100.00;97880.38;2206274;80;20132;-58
2022/09/18 15:08:08;;;;;;;;;;;;;;;10.51;100.00;97889.88;2201787;80;20388;-57
2022/09/18 15:11:10;;;;;;;;;;;;;;;10.49;100.00;97880.48;2208313;80;20383;-58
2022/09/18 15:14:11;;;;;;;;;;;;;;;10.48;100.00;97876.19;2207552;80;20108;-58
2022/09/18 15:17:12;;;;;;;;;;;;;;;10.47;100.00;97877.13;2207209;80;20391;-58
2022/09/18 15:20:15;;;;;;;;;;;;;;;10.45;100.00;97884.28;2199739;80;20136;-58
2022/09/18 15:23:16;;;;;;;;;;;;;;;10.45;100.00;97875.94;2191563;80;20115;-58
2022/09/18 15:26:17;;;;;;;;;;;;;;;10.38;100.00;97886.03;2205357;80;20386;-57
2022/09/18 15:29:20;;;;;;;;;;;;;;;10.53;100.00;97877.51;2210001;80;20112;-58
2022/09/18 15:32:22;;;;;;;;;;;;;;;10.51;100.00;97885.13;2209459;80;20088;-58
2022/09/18 15:35:24;;;;;;;;;;;;;;;10.47;100.00;97889.75;2201476;80;20470;-58
2022/09/18 15:38:25;;;;;;;;;;;;;;;10.46;100.00;97881.55;2207816;80;20096;-57
2022/09/18 15:41:27;;;;;;;;;;;;;;;10.47;100.00;97891.06;2205370;80;20109;-58
2022/09/18 15:44:29;;;;;;;;;;;;;;;10.48;100.00;97886.67;2207224;80;20104;-58